ID Time Temp Humidity Light PM2.5 PM10 Voltage Extra Firmware Position Fcnt TTN version Gateways Distance RSSI LSNR Radiosettings
2026-05-08 21:23:14 13.5625°C 81.5% 3.38V v4 51.6905 / 5.07339 2833 ttn.v3 - -123 -14 867.3MHz, SF9BW125, 4/5CR
2026-05-08 20:34:11 15.6875°C 68.5% 3.38V v4 51.6905 / 5.07339 2830 ttn.v3 9.246km -109 -9.25 868.1MHz, SF9BW125, 4/5CR
2026-05-08 18:39:37 17.5625°C 69.625% 3.38V v4 51.6905 / 5.07339 2823 ttn.v3 - -111 -7.5 867.3MHz, SF9BW125, 4/5CR
- -122 -7.5 867.3MHz, SF9BW125, 4/5CR
- -111 -7.5 867.3MHz, SF9BW125, 4/5CR
2026-05-08 17:34:08 17.9375°C 65.875% 3.38V v4 51.6905 / 5.07339 2819 ttn.v3 - -124 -13.25 867.9MHz, SF9BW125, 4/5CR
2026-05-08 17:17:46 17.6875°C 66.875% 3.38V v4 51.6905 / 5.07339 2818 ttn.v3 9.246km -108 -10 868.1MHz, SF9BW125, 4/5CR
2026-05-08 14:01:21 17.375°C 76.125% 3.38V v4 51.6905 / 5.07339 2806 ttn.v3 9.246km -105 -11.5 868.1MHz, SF9BW125, 4/5CR
2026-05-08 12:39:30 19.4375°C 73.5625% 3.38V v4 51.6905 / 5.07339 2801 ttn.v3 - -124 -13 867.1MHz, SF9BW125, 4/5CR
2026-05-08 12:23:07 19°C 78.25% 3.38V v4 51.6905 / 5.07339 2800 ttn.v3 9.246km -105 -8 868.1MHz, SF9BW125, 4/5CR
2026-05-08 12:06:45 18.4375°C 81.0625% 3.38V v4 51.6905 / 5.07339 2799 ttn.v3 9.246km -109 -9.25 867.9MHz, SF9BW125, 4/5CR
2026-05-08 09:55:56 12.625°C 108.875% 3.38V v4 51.6905 / 5.07339 2791 ttn.v3 - -126 -14 867.1MHz, SF9BW125, 4/5CR
2026-05-08 09:23:15 12.3125°C 109.625% 3.38V v4 51.6905 / 5.07339 2789 ttn.v3 - -115 -13.5 867.9MHz, SF9BW125, 4/5CR
- -115 -13.5 867.9MHz, SF9BW125, 4/5CR
- -126 -13.75 867.9MHz, SF9BW125, 4/5CR
2026-05-08 07:28:52 10.375°C -2.875% 3.38V v4 51.6905 / 5.07339 2782 ttn.v3 9.246km -105 -9 868.1MHz, SF9BW125, 4/5CR
2026-05-08 06:39:52 10.0625°C -0.3125% 3.39V v4 51.6905 / 5.07339 2779 ttn.v3 9.246km -110 -8.25 867.9MHz, SF9BW125, 4/5CR
2026-05-08 06:24:11 10.125°C 1.125% 3.38V v4 51.6905 / 5.07339 2778 ttn.v3 9.246km -98 -11.5 868.3MHz, SF12BW125, 4/5CR
2026-05-08 03:56:34 11.125°C 111.625% 3.38V v4 51.6902 / 5.07339 2769 ttn.v3 9.212km -110 -8.5 867.9MHz, SF9BW125, 4/5CR
2026-05-08 02:34:51 11.6875°C 104.75% 3.39V v4 51.6902 / 5.07339 2764 ttn.v3 9.212km -109 -8.5 868.1MHz, SF9BW125, 4/5CR
2026-05-08 01:13:08 12.1875°C 99.5% 3.38V v4 51.6902 / 5.07339 2759 ttn.v3 - -123 -11.75 867.9MHz, SF9BW125, 4/5CR
9.212km -110 -12.5 867.9MHz, SF9BW125, 4/5CR
2026-05-07 23:18:43 12.75°C 95.875% 3.38V v4 51.6902 / 5.07339 2752 ttn.v3 9.212km -108 -9.5 868.1MHz, SF9BW125, 4/5CR
2026-05-07 23:02:23 12.9375°C 94.375% 3.38V v4 51.6902 / 5.07339 2751 ttn.v3 - -111 -11.25 867.1MHz, SF9BW125, 4/5CR
- -111 -11.25 867.1MHz, SF9BW125, 4/5CR
- -123 -13 867.1MHz, SF9BW125, 4/5CR
2026-05-07 22:29:41 13.3125°C 88.9375% 3.38V v4 51.6902 / 5.07339 2749 ttn.v3 9.212km -110 -8.75 867.9MHz, SF9BW125, 4/5CR
2026-05-07 20:18:53 14.875°C 73.375% 3.38V v4 51.6902 / 5.07339 2741 ttn.v3 - -122 -13.25 867.1MHz, SF9BW125, 4/5CR
2026-05-07 19:46:10 15.4375°C 72.25% 3.38V v4 51.6902 / 5.07339 2739 ttn.v3 - -115 -10.25 867.9MHz, SF9BW125, 4/5CR
- -115 -10.25 867.9MHz, SF9BW125, 4/5CR
9.212km -110 -11 867.9MHz, SF9BW125, 4/5CR
2026-05-07 17:02:32 17.625°C 62.8125% 3.38V v4 51.6902 / 5.07339 2729 ttn.v3 - -124 -12.25 867.9MHz, SF9BW125, 4/5CR
- -115 -12.5 867.9MHz, SF9BW125, 4/5CR
- -115 -12.5 867.9MHz, SF9BW125, 4/5CR
2026-05-07 16:46:10 17.3125°C 64.4375% 3.38V v4 51.6902 / 5.07339 2728 ttn.v3 9.212km -110 -10.25 868.1MHz, SF9BW125, 4/5CR
2026-05-07 16:29:49 17.125°C 65.3125% 3.38V v4 51.6902 / 5.07339 2727 ttn.v3 - -122 -10.25 867.7MHz, SF9BW125, 4/5CR
2026-05-07 16:13:27 16.9375°C 67.1875% 3.38V v4 51.6902 / 5.07339 2726 ttn.v3 9.212km -107 -13 868.5MHz, SF9BW125, 4/5CR
2026-05-07 15:24:22 16.5°C 70% 3.38V v4 51.6902 / 5.07339 2723 ttn.v3 - -110 -13.5 867.3MHz, SF9BW125, 4/5CR
- -110 -13.5 867.3MHz, SF9BW125, 4/5CR
- -121 -14.75 867.3MHz, SF9BW125, 4/5CR
2026-05-07 14:51:38 17.75°C 62.5625% 3.38V v4 51.6902 / 5.07339 2721 ttn.v3 - -115 -11.5 867.1MHz, SF9BW125, 4/5CR
- -115 -11.5 867.1MHz, SF9BW125, 4/5CR
2026-05-07 11:51:31 17.625°C 70.625% 3.38V v4 51.6902 / 5.07339 2710 ttn.v3 9.212km -106 -11.25 868.1MHz, SF9BW125, 4/5CR
2026-05-07 11:35:10 17.125°C 72.0625% 3.38V v4 51.6902 / 5.07339 2709 ttn.v3 9.212km -110 -8.5 867.9MHz, SF9BW125, 4/5CR
2026-05-07 10:46:05 15.1875°C 78.125% 3.38V v4 51.6902 / 5.07339 2706 ttn.v3 9.212km -105 -12.25 868.3MHz, SF9BW125, 4/5CR
2026-05-07 09:24:21 12.1875°C 95.4375% 3.38V v4 51.6902 / 5.07339 2701 ttn.v3 - -109 -9 867.1MHz, SF9BW125, 4/5CR
- -109 -9 867.1MHz, SF9BW125, 4/5CR
- -120 -9.5 867.1MHz, SF9BW125, 4/5CR
2026-05-07 08:35:20 10°C 105.75% 3.38V v4 51.6902 / 5.07339 2698 ttn.v3 9.212km -108 -9 868.1MHz, SF9BW125, 4/5CR
2026-05-07 07:13:41 8.5625°C -0.125% 3.39V v4 51.6902 / 5.07339 2693 ttn.v3 - -115 -10.75 867.3MHz, SF9BW125, 4/5CR
- -115 -10.75 867.3MHz, SF9BW125, 4/5CR
- -123 -12.25 867.3MHz, SF9BW125, 4/5CR
2026-05-07 06:57:22 8.3125°C 1.625% 3.39V v4 51.6902 / 5.07339 2692 ttn.v3 9.212km -104 -7.75 868.1MHz, SF9BW125, 4/5CR
2026-05-07 05:19:24 7.9375°C 8.125% 3.39V v4 51.6902 / 5.07339 2686 ttn.v3 9.212km -109 -7.75 868.1MHz, SF9BW125, 4/5CR
2026-05-07 04:14:41 7.625°C 12.125% 3.39V v4 51.6902 / 5.07339 2682 ttn.v3 9.212km -105 -17 868.3MHz, SF12BW125, 4/5CR
2026-05-07 03:41:30 7.5°C 12.8125% 3.39V v4 51.6905 / 5.07336 2680 ttn.v3 9.246km -108 -6.75 868.1MHz, SF9BW125, 4/5CR
2026-05-07 02:36:11 8.125°C 10.9375% 3.39V v4 51.6905 / 5.07336 2676 ttn.v3 9.246km -107 -10.75 868.3MHz, SF9BW125, 4/5CR
2026-05-07 02:03:32 9.25°C 115.875% 3.38V v4 51.6905 / 5.07336 2674 ttn.v3 9.246km -109 -8 868.1MHz, SF9BW125, 4/5CR
2026-05-07 00:41:52 10.75°C 98.375% 3.39V v4 51.6905 / 5.07336 2669 ttn.v3 9.246km -110 -7.5 867.9MHz, SF9BW125, 4/5CR
- -112 -13 867.9MHz, SF9BW125, 4/5CR
- -112 -13 867.9MHz, SF9BW125, 4/5CR
2026-05-07 00:25:31 10.8125°C 96.75% 3.39V v4 51.6905 / 5.07336 2668 ttn.v3 9.246km -106 -9 868.1MHz, SF9BW125, 4/5CR
2026-05-07 00:09:11 10.75°C 96.0625% 3.38V v4 51.6905 / 5.07336 2667 ttn.v3 - -110 -9.25 867.7MHz, SF9BW125, 4/5CR
- -110 -9.25 867.7MHz, SF9BW125, 4/5CR
2026-05-06 23:03:50 10.875°C 95.125% 3.38V v4 51.6905 / 5.07336 2663 ttn.v3 - -124 -13.5 867.3MHz, SF9BW125, 4/5CR
2026-05-06 22:47:30 10.8125°C 94.9375% 3.38V v4 51.6905 / 5.07336 2662 ttn.v3 9.246km -108 -8.25 868.1MHz, SF9BW125, 4/5CR
2026-05-06 21:58:30 11°C 92.625% 3.38V v4 51.6905 / 5.07336 2659 ttn.v3 - -121 -7.25 867.9MHz, SF9BW125, 4/5CR
9.246km -111 -8.5 867.9MHz, SF9BW125, 4/5CR
- -114 -8.75 867.9MHz, SF9BW125, 4/5CR
- -114 -8.75 867.9MHz, SF9BW125, 4/5CR
2026-05-06 19:47:47 11.75°C 89.25% 3.38V v4 51.6905 / 5.07336 2651 ttn.v3 - -121 -7.25 867.1MHz, SF9BW125, 4/5CR
- -111 -7.75 867.1MHz, SF9BW125, 4/5CR
- -111 -7.75 867.1MHz, SF9BW125, 4/5CR
2026-05-06 19:15:06 12°C 88.0625% 3.38V v4 51.6905 / 5.07336 2649 ttn.v3 9.246km -109 -9 867.9MHz, SF9BW125, 4/5CR
2026-05-06 18:42:25 12.5625°C 90.5625% 3.38V v4 51.6905 / 5.07336 2647 ttn.v3 - -113 -12 867.7MHz, SF9BW125, 4/5CR
- -113 -12 867.7MHz, SF9BW125, 4/5CR
2026-05-06 18:26:04 12.125°C 90.625% 3.38V v4 51.6905 / 5.07336 2646 ttn.v3 9.246km -104 -12.5 868.3MHz, SF9BW125, 4/5CR
2026-05-06 17:20:43 11.875°C 87.25% 3.38V v4 51.6905 / 5.07336 2642 ttn.v3 9.246km -105 -11.75 868.5MHz, SF9BW125, 4/5CR
2026-05-06 17:04:22 12.25°C 86% 3.38V v4 51.6905 / 5.07336 2641 ttn.v3 - -111 -12.5 867.1MHz, SF9BW125, 4/5CR
- -111 -12.5 867.1MHz, SF9BW125, 4/5CR
- -125 -12.75 867.1MHz, SF9BW125, 4/5CR
2026-05-06 16:31:41 12.5625°C 82% 3.38V v4 51.6905 / 5.07336 2639 ttn.v3 9.246km -110 -9.75 867.9MHz, SF9BW125, 4/5CR
2026-05-06 15:58:59 12.625°C 80.1875% 3.38V v4 51.6905 / 5.07336 2637 ttn.v3 - -121 -12.5 867.7MHz, SF9BW125, 4/5CR
2026-05-06 14:37:15 14.1875°C 72.3125% 3.38V v4 51.6905 / 5.07336 2632 ttn.v3 9.246km -105 -10.5 868.1MHz, SF9BW125, 4/5CR
2026-05-06 14:04:32 14.8125°C 76.875% 3.38V v4 51.6905 / 5.07336 2630 ttn.v3 9.246km -105 -9.5 868.5MHz, SF9BW125, 4/5CR
2026-05-06 13:48:11 14.75°C 78.0625% 3.38V v4 51.6905 / 5.07336 2629 ttn.v3 9.246km -107 -10.75 867.9MHz, SF9BW125, 4/5CR
- -114 -10.75 867.9MHz, SF9BW125, 4/5CR
- -114 -10.75 867.9MHz, SF9BW125, 4/5CR
2026-05-06 13:31:50 14.625°C 78.3125% 3.38V v4 51.6905 / 5.07336 2628 ttn.v3 9.246km -101 -14 868.3MHz, SF9BW125, 4/5CR
2026-05-06 12:59:07 15.4375°C 70.8125% 3.38V v4 51.6905 / 5.07336 2626 ttn.v3 9.246km -103 -7.5 868.1MHz, SF9BW125, 4/5CR
2026-05-06 12:10:03 15.5625°C 75.5% 3.38V v4 51.6905 / 5.07336 2623 ttn.v3 - -110 -11.75 867.3MHz, SF9BW125, 4/5CR
- -110 -11.75 867.3MHz, SF9BW125, 4/5CR
2026-05-06 11:53:42 15.25°C 77.625% 3.38V v4 51.6905 / 5.07336 2622 ttn.v3 9.246km -103 -12 868.3MHz, SF9BW125, 4/5CR
2026-05-06 11:21:00 15.0625°C 86.75% 3.38V v4 51.6905 / 5.07336 2620 ttn.v3 9.246km -107 -6 868.1MHz, SF9BW125, 4/5CR
2026-05-06 10:48:18 13.4375°C 93.875% 3.38V v4 51.6905 / 5.07336 2618 ttn.v3 9.246km -104 -9 868.5MHz, SF9BW125, 4/5CR
2026-05-06 08:21:14 10.375°C 7.8125% 3.39V v4 51.6905 / 5.07336 2609 ttn.v3 9.246km -110 -6.75 867.9MHz, SF9BW125, 4/5CR
2026-05-06 07:48:34 9.6875°C 14.625% 3.39V v4 51.6905 / 5.07336 2607 ttn.v3 - -122 -13.75 867.7MHz, SF9BW125, 4/5CR
2026-05-06 06:43:15 8.9375°C 24.5% 3.39V v4 51.6905 / 5.07336 2603 ttn.v3 - -113 -13 867.3MHz, SF9BW125, 4/5CR
- -113 -13 867.3MHz, SF9BW125, 4/5CR
2026-05-06 06:26:55 8.875°C 24.8125% 3.39V v4 51.6905 / 5.07336 2602 ttn.v3 9.246km -109 -3.25 868.1MHz, SF9BW125, 4/5CR
2026-05-06 05:37:56 8.625°C 22.75% 3.38V v4 51.6905 / 5.07336 2599 ttn.v3 9.246km -111 -2.75 867.9MHz, SF9BW125, 4/5CR
2026-05-06 04:32:37 8.6875°C 24.4375% 3.39V v4 51.6905 / 5.07336 2595 ttn.v3 9.246km -107 -9.75 867.5MHz, SF9BW125, 4/5CR
2026-05-06 03:59:58 9°C 22.25% 3.39V v4 51.6905 / 5.07336 2593 ttn.v3 9.246km -113 -6 867.3MHz, SF9BW125, 4/5CR
2026-05-06 02:54:38 9.6875°C 1.625% 3.39V v4 51.6905 / 5.07336 2589 ttn.v3 9.246km -109 -8.5 867.9MHz, SF9BW125, 4/5CR
- -121 -12 867.9MHz, SF9BW125, 4/5CR
2026-05-06 02:21:58 9.75°C -0.5625% 3.39V v4 51.6905 / 5.07336 2587 ttn.v3 - -127 -12.5 867.7MHz, SF9BW125, 4/5CR
2026-05-06 02:06:29 9.75°C -2.375% 3.38V v4 51.6905 / 5.07336 2586 ttn.v3 9.246km -103 -12.25 868.3MHz, SF12BW125, 4/5CR
2026-05-06 01:33:03 9.875°C -6% 3.39V v4 51.6906 / 5.07343 2584 ttn.v3 9.257km -109 -7 868.1MHz, SF9BW125, 4/5CR
2026-05-06 01:00:23 10.0625°C 114.688% 3.39V v4 51.6906 / 5.07343 2582 ttn.v3 9.257km -107 -12.75 868.5MHz, SF9BW125, 4/5CR
2026-05-06 00:44:03 10.125°C 113.562% 3.39V v4 51.6906 / 5.07343 2581 ttn.v3 9.257km -110 -10.25 867.1MHz, SF9BW125, 4/5CR
2026-05-06 00:27:42 10.3125°C 112.5% 3.39V v4 51.6906 / 5.07343 2580 ttn.v3 9.257km -104 -13.25 868.3MHz, SF9BW125, 4/5CR
2026-05-06 00:11:22 10.4375°C 111% 3.39V v4 51.6906 / 5.07343 2579 ttn.v3 - -111 -9.25 867.9MHz, SF9BW125, 4/5CR
- -111 -9.25 867.9MHz, SF9BW125, 4/5CR
2026-05-05 22:17:01 11.1875°C 109.125% 3.38V v4 51.6906 / 5.07343 2572 ttn.v3 9.257km -107 -9 868.1MHz, SF9BW125, 4/5CR
2026-05-05 21:28:00 11.3125°C 107.312% 3.39V v4 51.6906 / 5.07343 2569 ttn.v3 9.257km -109 -7 867.9MHz, SF9BW125, 4/5CR
- -122 -11 867.9MHz, SF9BW125, 4/5CR
- -113 -11.25 867.9MHz, SF9BW125, 4/5CR
- -113 -11.25 867.9MHz, SF9BW125, 4/5CR
2026-05-05 21:11:39 11.6875°C 104.375% 3.38V v4 51.6906 / 5.07343 2568 ttn.v3 9.257km -104 -12.25 868.3MHz, SF9BW125, 4/5CR
2026-05-05 19:49:56 13.4375°C 110.375% 3.38V v4 51.6906 / 5.07343 2563 ttn.v3 - -110 -10 867.3MHz, SF9BW125, 4/5CR
- -110 -10 867.3MHz, SF9BW125, 4/5CR
- -121 -10.5 867.3MHz, SF9BW125, 4/5CR
2026-05-05 18:44:32 13.5625°C 107.688% 3.38V v4 51.6906 / 5.07343 2559 ttn.v3 9.257km -107 -9 867.9MHz, SF9BW125, 4/5CR
2026-05-05 18:11:50 14.1875°C 103.938% 3.38V v4 51.6906 / 5.07343 2557 ttn.v3 9.257km -108 -12 867.7MHz, SF9BW125, 4/5CR
2026-05-05 17:22:47 13.4375°C 110.5% 3.38V v4 51.6906 / 5.07343 2554 ttn.v3 9.257km -110 -9.5 868.1MHz, SF9BW125, 4/5CR
2026-05-05 17:06:26 13.1875°C 113.688% 3.38V v4 51.6906 / 5.07343 2553 ttn.v3 - -120 -12 867.3MHz, SF9BW125, 4/5CR
2026-05-05 16:33:44 12.9375°C 116.938% 3.38V v4 51.6906 / 5.07343 2551 ttn.v3 - -122 -11 867.1MHz, SF9BW125, 4/5CR
- -128 -14 867.1MHz, SF9BW125, 4/5CR
2026-05-05 16:01:03 12.4375°C -2.25% 3.38V v4 51.6906 / 5.07343 2549 ttn.v3 9.257km -110 -8.75 867.9MHz, SF9BW125, 4/5CR
- -113 -11.75 867.9MHz, SF9BW125, 4/5CR
- -113 -11.75 867.9MHz, SF9BW125, 4/5CR
2026-05-05 15:44:42 12.5°C 118.75% 3.38V v4 51.6906 / 5.07343 2548 ttn.v3 9.257km -108 -9.5 868.1MHz, SF9BW125, 4/5CR
2026-05-05 15:12:01 12.6875°C -5.0625% 3.38V v4 51.6906 / 5.07343 2546 ttn.v3 9.257km -109 -13.25 868.5MHz, SF9BW125, 4/5CR
2026-05-05 14:39:20 12.3125°C -2.0625% 3.38V v4 51.6906 / 5.07343 2544 ttn.v3 9.257km -104 -12.75 868.3MHz, SF9BW125, 4/5CR
2026-05-05 14:06:38 12.25°C -1.9375% 3.38V v4 51.6906 / 5.07343 2542 ttn.v3 9.257km -108 -5.75 868.1MHz, SF9BW125, 4/5CR
2026-05-05 13:01:16 12.25°C 5.1875% 3.38V v4 51.6906 / 5.07343 2538 ttn.v3 9.257km -105 -6.75 868.3MHz, SF9BW125, 4/5CR
2026-05-05 12:28:35 11.375°C 15.625% 3.38V v4 51.6906 / 5.07343 2536 ttn.v3 9.257km -108 -7.25 868.1MHz, SF9BW125, 4/5CR
2026-05-05 11:55:54 10.875°C 18.125% 3.39V v4 51.6906 / 5.07343 2534 ttn.v3 9.257km -105 -10.25 868.5MHz, SF9BW125, 4/5CR
2026-05-05 09:12:34 9.6875°C 21.9375% 3.38V v4 51.6906 / 5.07343 2524 ttn.v3 9.257km -105 -7.75 868.1MHz, SF9BW125, 4/5CR
2026-05-05 08:39:54 9.5625°C 19.5625% 3.39V v4 51.6906 / 5.07343 2522 ttn.v3 9.257km -105 -12.25 868.5MHz, SF9BW125, 4/5CR
2026-05-05 08:23:34 9.5625°C 18.875% 3.39V v4 51.6906 / 5.07343 2521 ttn.v3 12.117km -111 -11.5 867.1MHz, SF9BW125, 4/5CR
2026-05-05 07:50:54 9.625°C 17.5625% 3.39V v4 51.6906 / 5.07343 2519 ttn.v3 9.257km -110 -6.25 867.9MHz, SF9BW125, 4/5CR
2026-05-05 07:34:34 9.5625°C 17.375% 3.39V v4 51.6906 / 5.07343 2518 ttn.v3 9.257km -111 -2.5 868.1MHz, SF9BW125, 4/5CR
2026-05-05 07:18:15 9.5625°C 16.75% 3.39V v4 51.6906 / 5.07343 2517 ttn.v3 - -115 -9 867.7MHz, SF9BW125, 4/5CR
- -115 -9 867.7MHz, SF9BW125, 4/5CR
9.257km -111 -10.5 867.7MHz, SF9BW125, 4/5CR
- -120 -12 867.7MHz, SF9BW125, 4/5CR
2026-05-05 07:01:54 9.625°C 16.875% 3.38V v4 51.6906 / 5.07343 2516 ttn.v3 9.257km -104 -7.25 868.5MHz, SF9BW125, 4/5CR
2026-05-05 05:56:35 9.8125°C 17.8125% 3.38V v4 51.6906 / 5.07343 2512 ttn.v3 9.257km -108 -6.5 868.1MHz, SF9BW125, 4/5CR
2026-05-05 05:40:15 9.875°C 18.0625% 3.38V v4 51.6906 / 5.07343 2511 ttn.v3 - -124 -11 867.1MHz, SF9BW125, 4/5CR
2026-05-05 05:07:35 10.0625°C 17.5625% 3.38V v4 51.6906 / 5.07343 2509 ttn.v3 9.257km -113 -1.25 867.9MHz, SF9BW125, 4/5CR
- -123 -11.5 867.9MHz, SF9BW125, 4/5CR
2026-05-05 04:51:15 10.25°C 16.5625% 3.38V v4 51.6906 / 5.07343 2508 ttn.v3 9.257km -111 -9.25 868.3MHz, SF9BW125, 4/5CR
2026-05-05 04:34:55 10.3125°C 16.8125% 3.38V v4 51.6906 / 5.07343 2507 ttn.v3 9.257km -103 -5.5 867.7MHz, SF9BW125, 4/5CR
2026-05-05 04:18:34 10.4375°C 17.3125% 3.38V v4 51.6906 / 5.07343 2506 ttn.v3 9.257km -110 -3 868.1MHz, SF9BW125, 4/5CR
2026-05-05 03:45:54 10.9375°C 18.375% 3.39V v4 51.6906 / 5.07343 2504 ttn.v3 9.257km -109 -6 868.5MHz, SF9BW125, 4/5CR
2026-05-05 03:29:34 11.0625°C 20.6875% 3.38V v4 51.6906 / 5.07343 2503 ttn.v3 12.117km -110 -12.75 867.3MHz, SF9BW125, 4/5CR
- -126 -14.5 867.3MHz, SF9BW125, 4/5CR
- -124 -16.5 867.3MHz, SF9BW125, 4/5CR
2026-05-05 03:13:13 11.3125°C 22.6875% 3.38V v4 51.6906 / 5.07343 2502 ttn.v3 9.257km -107 -6 868.3MHz, SF9BW125, 4/5CR
2026-05-05 02:40:33 11.5625°C 22.6875% 3.38V v4 51.6906 / 5.07343 2500 ttn.v3 9.257km -104 -8.75 868.1MHz, SF9BW125, 4/5CR
2026-05-05 02:24:12 11.625°C 23.125% 3.39V v4 51.6906 / 5.07343 2499 ttn.v3 - -129 -13.75 867.9MHz, SF9BW125, 4/5CR
2026-05-05 02:07:52 11.875°C 24.25% 3.38V v4 51.6906 / 5.07343 2498 ttn.v3 9.257km -94 -7.5 868.5MHz, SF9BW125, 4/5CR
2026-05-05 01:51:31 12.125°C 24.5% 3.38V v4 51.6906 / 5.07343 2497 ttn.v3 - -121 -12 867.7MHz, SF9BW125, 4/5CR
- -111 -12.5 867.7MHz, SF9BW125, 4/5CR
- -111 -12.5 867.7MHz, SF9BW125, 4/5CR
2026-05-05 01:35:11 12.5625°C 24.5% 3.38V v4 51.6906 / 5.07343 2496 ttn.v3 9.257km -107 -8.5 868.3MHz, SF9BW125, 4/5CR
2026-05-05 01:02:29 12.8125°C 24.25% 3.38V v4 51.6906 / 5.07343 2494 ttn.v3 9.257km -115 -4.75 868.1MHz, SF9BW125, 4/5CR
2026-05-05 00:29:48 13.0625°C 23.6875% 3.38V v4 51.6906 / 5.07343 2492 ttn.v3 9.257km -107 -9 868.5MHz, SF9BW125, 4/5CR
2026-05-04 23:57:41 13.1875°C 22.875% 3.38V v4 51.6906 / 5.07343 2490 ttn.v3 9.257km -105 -9.5 868.3MHz, SF12BW125, 4/5CR
2026-05-04 23:40:48 13.25°C 22.3125% 3.38V v4 51.6905 / 5.07336 2489 ttn.v3 9.246km -113 -1.5 867.9MHz, SF9BW125, 4/5CR
- -122 -10 867.9MHz, SF9BW125, 4/5CR
- -113 -10.25 867.9MHz, SF9BW125, 4/5CR
- -113 -10.25 867.9MHz, SF9BW125, 4/5CR
2026-05-04 23:24:27 13.3125°C 22.375% 3.38V v4 51.6905 / 5.07336 2488 ttn.v3 9.246km -102 -3.25 868.1MHz, SF9BW125, 4/5CR
2026-05-04 22:19:04 13.8125°C 25.1875% 3.38V v4 51.6905 / 5.07336 2484 ttn.v3 9.246km -107 -10.75 868.3MHz, SF9BW125, 4/5CR
2026-05-04 22:02:43 14.0625°C 24.9375% 3.38V v4 51.6905 / 5.07336 2483 ttn.v3 - -123 -8.75 867.3MHz, SF9BW125, 4/5CR
9.246km -109 -9.75 867.3MHz, SF9BW125, 4/5CR
- -127 -10.75 867.3MHz, SF9BW125, 4/5CR
- -110 -11.25 867.3MHz, SF9BW125, 4/5CR
- -110 -11.25 867.3MHz, SF9BW125, 4/5CR
2026-05-04 21:46:21 14.5°C 23.125% 3.38V v4 51.6905 / 5.07336 2482 ttn.v3 9.246km -110 -9.5 868.1MHz, SF9BW125, 4/5CR
2026-05-04 20:57:17 15.5°C 11.4375% 3.38V v4 51.6905 / 5.07336 2479 ttn.v3 - -122 -12 867.9MHz, SF9BW125, 4/5CR
2026-05-04 20:40:56 15.8125°C 3.6875% 3.38V v4 51.6905 / 5.07336 2478 ttn.v3 9.246km -107 -10 868.3MHz, SF9BW125, 4/5CR
2026-05-04 20:24:34 16.25°C 3.75% 3.38V v4 51.6905 / 5.07336 2477 ttn.v3 - -113 -10 867.7MHz, SF9BW125, 4/5CR
- -113 -10 867.7MHz, SF9BW125, 4/5CR
2026-05-04 20:08:13 17°C -1.5625% 3.38V v4 51.6905 / 5.07336 2476 ttn.v3 9.246km -110 -9.75 868.1MHz, SF9BW125, 4/5CR
2026-05-04 18:13:36 19.0625°C 99.6875% 3.38V v4 51.6905 / 5.07336 2469 ttn.v3 9.246km -111 -6.75 867.9MHz, SF9BW125, 4/5CR
2026-05-04 17:40:51 19.875°C 93.125% 3.38V v4 51.6905 / 5.07336 2467 ttn.v3 9.246km -107 -9 867.7MHz, SF9BW125, 4/5CR
- -111 -12.5 867.7MHz, SF9BW125, 4/5CR
- -111 -12.5 867.7MHz, SF9BW125, 4/5CR
2026-05-04 17:24:29 19.9375°C 91.375% 3.38V v4 51.6905 / 5.07336 2466 ttn.v3 9.246km -107 -8.5 868.3MHz, SF9BW125, 4/5CR
2026-05-04 17:08:06 20.3125°C 91.625% 3.38V v4 51.6905 / 5.07336 2465 ttn.v3 9.246km -104 -12 867.5MHz, SF9BW125, 4/5CR
2026-05-04 16:18:57 21°C 86.9375% 3.38V v4 51.6905 / 5.07336 2462 ttn.v3 9.246km -105 -12 868.5MHz, SF9BW125, 4/5CR
2026-05-04 15:29:48 19.8125°C 97.75% 3.38V v4 51.6905 / 5.07336 2459 ttn.v3 9.246km -109 -7.5 867.9MHz, SF9BW125, 4/5CR
2026-05-04 15:13:26 19°C 102.438% 3.38V v4 51.6905 / 5.07336 2458 ttn.v3 9.246km -110 -5.25 868.1MHz, SF9BW125, 4/5CR
2026-05-04 14:40:40 20.125°C 96.3125% 3.38V v4 51.6905 / 5.07336 2456 ttn.v3 9.246km -109 -9 868.5MHz, SF9BW125, 4/5CR
2026-05-04 13:51:32 18.625°C 110.375% 3.38V v4 51.6905 / 5.07336 2453 ttn.v3 9.246km -108 -11.5 867.3MHz, SF9BW125, 4/5CR
2026-05-04 13:35:10 18.625°C 106.188% 3.38V v4 51.6905 / 5.07336 2452 ttn.v3 9.246km -108 -6.25 868.1MHz, SF9BW125, 4/5CR
2026-05-04 13:18:47 18.0625°C 118.625% 3.38V v4 51.6905 / 5.07336 2451 ttn.v3 9.246km -108 -10.75 867.1MHz, SF9BW125, 4/5CR
2026-05-04 13:02:25 17.5625°C 7.1875% 3.38V v4 51.6905 / 5.07336 2450 ttn.v3 9.246km -110 -8.75 868.5MHz, SF9BW125, 4/5CR
2026-05-04 12:46:03 17.625°C 1% 3.38V v4 51.6905 / 5.07336 2449 ttn.v3 9.246km -109 -4.75 867.9MHz, SF9BW125, 4/5CR
- -111 -13 867.9MHz, SF9BW125, 4/5CR
- -111 -13 867.9MHz, SF9BW125, 4/5CR
- -121 -13.5 867.9MHz, SF9BW125, 4/5CR
2026-05-04 12:13:19 18°C -3.0625% 3.38V v4 51.6905 / 5.07336 2447 ttn.v3 - -122 -11.5 867.7MHz, SF9BW125, 4/5CR
2026-05-04 11:56:56 18.375°C 117.688% 3.38V v4 51.6905 / 5.07336 2446 ttn.v3 9.246km -104 -5.5 868.1MHz, SF9BW125, 4/5CR
2026-05-04 10:51:27 18.1875°C 1.5% 3.38V v4 51.6905 / 5.07336 2442 ttn.v3 9.246km -109 -10.25 868.3MHz, SF9BW125, 4/5CR
2026-05-04 10:18:43 17.9375°C 9.9375% 3.38V v4 51.6905 / 5.07336 2440 ttn.v3 9.246km -101 -7.75 868.1MHz, SF9BW125, 4/5CR
2026-05-04 10:02:21 17.0625°C 21.25% 3.38V v4 51.6905 / 5.07336 2439 ttn.v3 9.246km -110 -7 867.9MHz, SF9BW125, 4/5CR
2026-05-04 09:45:59 16.3125°C 17.375% 3.38V v4 51.6905 / 5.07336 2438 ttn.v3 9.246km -108 -8.5 868.5MHz, SF9BW125, 4/5CR
2026-05-04 09:13:17 15.125°C 1.75% 3.38V v4 51.6905 / 5.07336 2436 ttn.v3 9.246km -106 -8.25 868.3MHz, SF9BW125, 4/5CR
2026-05-04 08:40:34 14.6875°C 0.1875% 3.38V v4 51.6905 / 5.07336 2434 ttn.v3 9.246km -110 -7 868.1MHz, SF9BW125, 4/5CR
2026-05-04 07:18:51 11.875°C 9.25% 3.38V v4 51.6905 / 5.07336 2429 ttn.v3 9.246km -110 -7.25 867.9MHz, SF9BW125, 4/5CR
- -126 -14.5 867.9MHz, SF9BW125, 4/5CR
2026-05-04 07:02:30 11.75°C 10% 3.39V v4 51.6905 / 5.07336 2428 ttn.v3 9.246km -109 -5.5 868.1MHz, SF9BW125, 4/5CR
2026-05-04 06:29:49 11.5625°C 10.875% 3.38V v4 51.6905 / 5.07336 2426 ttn.v3 9.246km -107 -9.5 868.5MHz, SF9BW125, 4/5CR
2026-05-04 05:24:28 11.5625°C 11.5% 3.38V v4 51.6905 / 5.07336 2422 ttn.v3 9.246km -111 -8.75 868.1MHz, SF9BW125, 4/5CR
2026-05-04 05:08:07 11.5°C 11.5% 3.38V v4 51.6905 / 5.07336 2421 ttn.v3 9.246km -109 -12.5 867.1MHz, SF9BW125, 4/5CR
2026-05-04 04:51:47 11.625°C 11.4375% 3.38V v4 51.6905 / 5.07336 2420 ttn.v3 9.246km -107 -8.5 868.5MHz, SF9BW125, 4/5CR
2026-05-04 04:35:26 11.75°C 11.3125% 3.38V v4 51.6905 / 5.07336 2419 ttn.v3 9.246km -109 -9 867.9MHz, SF9BW125, 4/5CR
2026-05-04 04:19:06 11.875°C 11% 3.38V v4 51.6905 / 5.07336 2418 ttn.v3 9.246km -107 -9 868.3MHz, SF9BW125, 4/5CR
2026-05-04 04:02:45 11.8125°C 10.9375% 3.38V v4 51.6905 / 5.07336 2417 ttn.v3 9.246km -110 -6.25 867.7MHz, SF9BW125, 4/5CR
12.106km -111 -11.25 867.7MHz, SF9BW125, 4/5CR
2026-05-04 03:30:04 11.8125°C 11.0625% 3.38V v4 51.6905 / 5.07336 2415 ttn.v3 9.246km -108 -8 867.5MHz, SF9BW125, 4/5CR
2026-05-04 03:13:44 11.9375°C 11% 3.38V v4 51.6905 / 5.07336 2414 ttn.v3 9.246km -110 -9.75 868.5MHz, SF9BW125, 4/5CR
2026-05-04 02:57:23 12°C 10.6875% 3.38V v4 51.6905 / 5.07336 2413 ttn.v3 9.246km -110 -8.75 867.3MHz, SF9BW125, 4/5CR
12.106km -111 -11.75 867.3MHz, SF9BW125, 4/5CR
- -128 -13.25 867.3MHz, SF9BW125, 4/5CR
2026-05-04 01:52:01 11.9375°C 10.25% 3.38V v4 51.6905 / 5.07336 2409 ttn.v3 9.246km -111 -6.5 867.9MHz, SF9BW125, 4/5CR
- -126 -13.75 867.9MHz, SF9BW125, 4/5CR
2026-05-04 01:35:41 11.8125°C 9.9375% 3.38V v4 51.6905 / 5.07336 2408 ttn.v3 9.246km -110 -10.25 868.5MHz, SF9BW125, 4/5CR
2026-05-04 00:30:19 12.5°C 9.875% 3.38V v4 51.6905 / 5.07336 2404 ttn.v3 9.246km -107 -6.25 868.1MHz, SF9BW125, 4/5CR
2026-05-03 23:57:37 12.125°C 10.875% 3.38V v4 51.6905 / 5.07336 2402 ttn.v3 9.246km -108 -8 868.5MHz, SF9BW125, 4/5CR
2026-05-03 23:41:17 12.0625°C 11.5625% 3.38V v4 51.6905 / 5.07336 2401 ttn.v3 9.246km -111 -11.25 867.1MHz, SF9BW125, 4/5CR
12.106km -113 -11.75 867.1MHz, SF9BW125, 4/5CR
2026-05-03 23:08:35 12.8125°C 12.3125% 3.38V v4 51.6905 / 5.07336 2399 ttn.v3 - -125 -15 867.9MHz, SF9BW125, 4/5CR
2026-05-03 22:52:14 12.9375°C 13% 3.38V v4 51.6905 / 5.07336 2398 ttn.v3 9.246km -110 -4.5 868.1MHz, SF9BW125, 4/5CR
2026-05-03 22:35:54 13°C 13.3125% 3.38V v4 51.6905 / 5.07336 2397 ttn.v3 9.246km -111 -8 867.7MHz, SF9BW125, 4/5CR
2026-05-03 22:19:33 13°C 13.8125% 3.38V v4 51.6905 / 5.07336 2396 ttn.v3 9.246km -109 -10.25 868.5MHz, SF9BW125, 4/5CR
2026-05-03 21:47:41 13.0625°C 14.25% 3.38V v4 51.6905 / 5.07336 2394 ttn.v3 9.246km -104 -9 868.3MHz, SF12BW125, 4/5CR
2026-05-03 21:30:34 13.125°C 14.4375% 3.38V v4 51.6905 / 5.07336 2393 ttn.v3 9.246km -110 -7.75 867.3MHz, SF9BW125, 4/5CR
- -125 -11.5 867.3MHz, SF9BW125, 4/5CR
2026-05-03 21:14:14 13.4375°C 13.8125% 3.38V v4 51.6905 / 5.07336 2392 ttn.v3 9.246km -107 -4.25 868.1MHz, SF9BW125, 4/5CR
2026-05-03 20:41:32 13.6875°C 14.125% 3.38V v4 51.6905 / 5.07336 2390 ttn.v3 9.246km -107 -7.25 868.5MHz, SF9BW125, 4/5CR
2026-05-03 20:25:10 13.8125°C 14.1875% 3.38V v4 51.6905 / 5.07336 2389 ttn.v3 9.246km -111 -5.5 867.9MHz, SF9BW125, 4/5CR
- -125 -12 867.9MHz, SF9BW125, 4/5CR
2026-05-03 19:36:07 14.875°C 14.75% 3.38V v4 51.6905 / 5.07336 2386 ttn.v3 9.246km -113 -2.5 868.1MHz, SF9BW125, 4/5CR
2026-05-03 19:03:24 15°C 19.875% 3.38V v4 51.6905 / 5.07336 2384 ttn.v3 9.246km -108 -8.5 868.5MHz, SF9BW125, 4/5CR
2026-05-03 17:57:57 17.0625°C 21.625% 3.38V v4 51.6905 / 5.07336 2380 ttn.v3 9.246km -109 -3.5 868.1MHz, SF9BW125, 4/5CR
2026-05-03 17:41:35 17.125°C 13.6875% 3.38V v4 51.6905 / 5.07336 2379 ttn.v3 9.246km -107 -7.25 867.9MHz, SF9BW125, 4/5CR
2026-05-03 16:52:31 15.6875°C 24.9375% 3.38V v4 51.6905 / 5.07336 2376 ttn.v3 9.246km -107 -7.25 868.3MHz, SF9BW125, 4/5CR
2026-05-03 16:19:47 16.8125°C 20.75% 3.38V v4 51.6905 / 5.07336 2374 ttn.v3 9.246km -115 -4.5 868.1MHz, SF9BW125, 4/5CR
2026-05-03 16:03:25 16.4375°C 23.1875% 3.38V v4 51.6905 / 5.07336 2373 ttn.v3 9.246km -105 -10.5 867.3MHz, SF9BW125, 4/5CR
- -126 -12.25 867.3MHz, SF9BW125, 4/5CR
2026-05-03 15:47:04 16.25°C 23.25% 3.38V v4 51.6905 / 5.07336 2372 ttn.v3 9.246km -107 -10.75 868.5MHz, SF9BW125, 4/5CR
2026-05-03 14:57:58 16.4375°C 24.4375% 3.38V v4 51.6905 / 5.07336 2369 ttn.v3 - -122 -13 867.9MHz, SF9BW125, 4/5CR
2026-05-03 14:41:37 16.3125°C 23.625% 3.38V v4 51.6905 / 5.07336 2368 ttn.v3 9.246km -111 -3.25 868.1MHz, SF9BW125, 4/5CR
2026-05-03 14:25:15 16°C 24.3125% 3.38V v4 51.6905 / 5.07336 2367 ttn.v3 9.246km -109 -6.75 867.7MHz, SF9BW125, 4/5CR
- -121 -14.75 867.7MHz, SF9BW125, 4/5CR
2026-05-03 14:08:53 15.8125°C 24.5625% 3.38V v4 51.6905 / 5.07336 2366 ttn.v3 9.246km -103 -8 868.5MHz, SF9BW125, 4/5CR
2026-05-03 13:36:10 15.8125°C 23.125% 3.38V v4 51.6905 / 5.07336 2364 ttn.v3 9.246km -107 -7.5 868.3MHz, SF9BW125, 4/5CR
2026-05-03 13:19:48 16.4375°C 24.375% 3.38V v4 51.6905 / 5.07336 2363 ttn.v3 9.246km -110 -9.25 867.3MHz, SF9BW125, 4/5CR
2026-05-03 13:03:26 16.5°C 22.0625% 3.38V v4 51.6905 / 5.07336 2362 ttn.v3 9.246km -111 -4.5 868.1MHz, SF9BW125, 4/5CR
2026-05-03 12:47:04 17°C 20.9375% 3.38V v4 51.6905 / 5.07336 2361 ttn.v3 9.246km -110 -9.5 867.1MHz, SF9BW125, 4/5CR
2026-05-03 12:30:42 17.1875°C 11.375% 3.38V v4 51.6905 / 5.07336 2360 ttn.v3 9.246km -104 -6.25 868.5MHz, SF9BW125, 4/5CR
2026-05-03 12:14:20 17.8125°C 8.375% 3.38V v4 51.6905 / 5.07336 2359 ttn.v3 9.246km -110 -10 867.9MHz, SF9BW125, 4/5CR
2026-05-03 11:41:35 17.9375°C 6.75% 3.38V v4 51.6905 / 5.07336 2357 ttn.v3 9.246km -107 -8 867.7MHz, SF9BW125, 4/5CR
2026-05-03 09:14:16 16.8125°C 21.875% 3.38V v4 51.6905 / 5.07336 2348 ttn.v3 9.246km -105 -11 868.5MHz, SF9BW125, 4/5CR
2026-05-03 08:57:55 16.125°C 21.0625% 3.38V v4 51.6905 / 5.07336 2347 ttn.v3 9.246km -107 -9.5 867.7MHz, SF9BW125, 4/5CR
2026-05-03 06:47:06 13.3125°C 6.8125% 3.38V v4 51.6905 / 5.07336 2339 ttn.v3 9.246km -107 -9 867.9MHz, SF9BW125, 4/5CR
12.106km -115 -9.25 867.9MHz, SF9BW125, 4/5CR
2026-05-03 06:30:45 13.1875°C 7.375% 3.38V v4 51.6905 / 5.07336 2338 ttn.v3 9.246km -108 -6.5 868.1MHz, SF9BW125, 4/5CR
2026-05-03 06:14:24 13.375°C 7.625% 3.38V v4 51.6905 / 5.07336 2337 ttn.v3 9.246km -107 -10 867.7MHz, SF9BW125, 4/5CR
- -126 -11.75 867.7MHz, SF9BW125, 4/5CR
2026-05-03 04:03:36 13.9375°C 13.9375% 3.38V v4 51.6905 / 5.07336 2329 ttn.v3 9.246km -109 -9 867.9MHz, SF9BW125, 4/5CR

Message count: 200
Node count: 1

Messages per node

Number of messages in list aboveNodes
200

Statistics per gateway

GatewayNumber of messagesNumber of nodesNodes
1621 (9.246km)
581
411
91
61 (12.106km)

Filter by dataset